createdAt,value
2022-11-21T00:08:16.456Z,1.90
2022-11-21T00:18:18.018Z,2.10
2022-11-21T00:28:19.503Z,2.00
2022-11-21T00:38:21.005Z,1.90
2022-11-21T00:48:22.469Z,1.73
2022-11-21T00:58:23.929Z,1.97
2022-11-21T01:08:25.355Z,1.73
2022-11-21T01:18:26.788Z,1.80
2022-11-21T01:28:28.284Z,1.53
2022-11-21T01:38:29.740Z,1.40
2022-11-21T01:49:08.735Z,1.40
2022-11-21T01:59:15.929Z,1.90
2022-11-21T02:09:18.624Z,2.00
2022-11-21T02:19:27.937Z,1.33
2022-11-21T02:29:30.593Z,1.70
2022-11-21T02:39:35.401Z,1.77
2022-11-21T02:49:58.035Z,1.70
2022-11-21T02:59:59.498Z,1.47
2022-11-21T03:10:01.001Z,1.83
2022-11-21T03:20:02.528Z,2.10
2022-11-21T03:30:04.469Z,1.60
2022-11-21T03:40:06.761Z,1.70
2022-11-21T03:50:08.619Z,1.60
2022-11-21T04:00:10.694Z,1.60
2022-11-21T04:10:12.183Z,1.47
2022-11-21T04:20:13.997Z,3.07
2022-11-21T04:30:15.698Z,1.70
2022-11-21T04:40:17.649Z,1.87
2022-11-21T04:50:20.261Z,1.80
2022-11-21T05:00:24.342Z,1.37
2022-11-21T05:10:26.261Z,1.07
2022-11-21T05:20:27.772Z,1.30
2022-11-21T05:30:29.304Z,1.17
2022-11-21T05:40:30.770Z,1.40
2022-11-21T05:50:32.209Z,1.30
2022-11-21T06:00:33.671Z,1.50
2022-11-21T06:10:35.265Z,1.97
2022-11-21T06:20:36.721Z,2.30
2022-11-21T06:30:38.646Z,2.33
2022-11-21T06:40:40.742Z,3.27
2022-11-21T06:50:42.254Z,4.00
2022-11-21T07:00:44.389Z,3.27
2022-11-21T07:11:10.214Z,2.80
2022-11-21T07:21:08.496Z,2.80
2022-11-21T07:31:13.920Z,2.90
2022-11-21T07:41:15.844Z,1.60
2022-11-21T07:51:17.307Z,1.97
2022-11-21T08:01:18.850Z,2.70
2022-11-21T08:11:20.529Z,1.77
2022-11-21T08:21:22.025Z,1.70
2022-11-21T08:31:23.620Z,1.93
2022-11-21T08:41:43.743Z,1.57
2022-11-21T08:51:49.233Z,1.60
2022-11-21T09:01:52.807Z,1.60
2022-11-21T09:11:54.385Z,2.00
2022-11-21T09:21:56.362Z,1.63
2022-11-21T09:31:57.816Z,1.70
2022-11-21T09:42:09.926Z,2.10
2022-11-21T09:52:15.629Z,2.10
2022-11-21T10:02:19.528Z,2.53
2022-11-21T10:12:58.747Z,2.70
2022-11-21T10:23:37.770Z,3.40
2022-11-21T10:33:40.473Z,3.47
2022-11-21T10:44:17.830Z,4.50
2022-11-21T10:54:34.276Z,5.27
2022-11-21T11:04:47.282Z,5.30
2022-11-21T11:14:54.815Z,7.30
2022-11-21T11:25:00.477Z,7.77
2022-11-21T11:35:21.426Z,6.30
2022-11-21T11:45:49.181Z,6.87
2022-11-21T11:55:58.380Z,7.10
2022-11-21T12:06:09.143Z,7.17
2022-11-21T12:16:14.364Z,7.37
2022-11-21T12:26:37.419Z,7.70
2022-11-21T12:36:59.934Z,8.40
2022-11-21T12:47:22.915Z,7.50
2022-11-21T12:57:38.012Z,8.23
2022-11-21T13:07:41.188Z,8.13
2022-11-21T13:18:07.756Z,8.87
2022-11-21T13:28:18.601Z,9.30
2022-11-21T13:38:20.080Z,8.80
2022-11-21T13:48:24.525Z,7.80
2022-11-21T13:58:41.139Z,8.90
2022-11-21T14:08:43.826Z,7.77
2022-11-21T14:18:47.170Z,8.50
2022-11-21T14:28:48.865Z,7.67
2022-11-21T14:39:28.918Z,8.10
2022-11-21T14:49:16.882Z,6.70
2022-11-21T14:59:25.462Z,6.47
2022-11-21T15:20:09.951Z,6.53
2022-11-21T15:30:12.925Z,6.20
2022-11-21T15:40:19.850Z,7.43
2022-11-21T15:50:24.625Z,7.33
2022-11-21T16:00:26.108Z,8.33
2022-11-21T16:10:28.205Z,9.03
2022-11-21T16:20:29.777Z,8.20
2022-11-21T16:30:31.215Z,11.10
2022-11-21T16:40:32.641Z,6.20
2022-11-21T16:50:34.172Z,7.10
2022-11-21T17:00:36.742Z,5.83
2022-11-21T17:10:38.190Z,5.60
2022-11-21T17:20:39.704Z,5.97
2022-11-21T17:30:44.180Z,4.80
2022-11-21T17:40:45.659Z,5.43
2022-11-21T17:50:47.132Z,5.50
2022-11-21T18:00:53.943Z,5.67
2022-11-21T18:10:55.477Z,6.50
2022-11-21T18:21:08.810Z,5.97
2022-11-21T18:31:11.564Z,4.97
2022-11-21T18:41:16.003Z,6.10
2022-11-21T18:51:26.345Z,6.10
2022-11-21T19:01:29.254Z,6.27
2022-11-21T19:11:30.940Z,6.27
2022-11-21T19:21:35.940Z,6.80
2022-11-21T19:31:43.096Z,6.70
2022-11-21T19:41:50.433Z,9.10
2022-11-21T19:51:51.883Z,8.27
2022-11-21T20:01:53.724Z,7.43
2022-11-21T20:11:55.221Z,6.73
2022-11-21T20:21:56.794Z,7.10
2022-11-21T20:31:59.272Z,7.23
2022-11-21T20:42:01.682Z,7.70
2022-11-21T21:02:24.768Z,5.33
2022-11-21T21:12:27.677Z,5.97
2022-11-21T21:22:29.217Z,6.77
2022-11-21T21:32:30.666Z,6.03
2022-11-21T21:42:32.210Z,6.27
2022-11-21T21:52:33.707Z,4.80
2022-11-21T22:02:35.696Z,4.53
2022-11-21T22:12:42.561Z,4.80
2022-11-21T22:22:45.375Z,4.53
2022-11-21T22:32:47.024Z,4.63
2022-11-21T22:42:48.491Z,4.40
2022-11-21T22:52:50.044Z,4.20
2022-11-21T23:02:51.628Z,4.47
2022-11-21T23:12:53.355Z,5.07
2022-11-21T23:22:56.445Z,4.50
2022-11-21T23:32:57.955Z,5.43
2022-11-21T23:42:59.410Z,5.30
2022-11-21T23:53:00.989Z,5.50
